M I D A S
Marine Information and Data Acquisition System
Tripno 2276 of the Zeeleeuw from 2012-03-15 07:47:01 to 2012-03-15 15:21:42
Back to CruiseResearch ActivitiesStationsMapUnderway DataData graphs

EquipmentUnitsComments
TimeDGPSUTC
LatitudeDGPSDM.mWGS84
LongitudeDGPSDM.mWGS84
SpeedMeteo Stationm/sRelative wind speed
DirectionMeteo StationdegRelative wind direction
TemperatureMeteo Stationdeg CelciusAir temperature
PressureMeteo StationPaAtmospheric pressure
HumidityMeteo Station%Relative humidity
Missing or incorrect values are displayed as -999
Metereological data collected by the RV Zeeleeuw from 2012-03-15 06:55:46 to 2012-03-15 15:38:40
Time Latitude Longitude Speed Direction Temperature Pressure Humidity
2012-03-15 06:56 51°13.635 2°56.018 1.3 334 4.2 102630 52
2012-03-15 06:57 51°13.636 2°56.019 0.1 332 4.2 102630 52
2012-03-15 06:58 51°13.635 2°56.018 0.1 331 4.2 102620 52
2012-03-15 06:59 51°13.635 2°56.018 -999 330 4.2 102620 51
2012-03-15 07:00 51°13.636 2°56.019 -999 335 4.3 102620 52
2012-03-15 07:01 51°13.636 2°56.018 0.1 339 4.3 102620 52
2012-03-15 07:02 51°13.637 2°56.02 0.1 335 4.3 102620 52
2012-03-15 07:03 51°13.636 2°56.019 0.6 340 4.3 102620 52
2012-03-15 07:04 51°13.636 2°56.02 0.1 338 4.4 102620 52
2012-03-15 07:05 51°13.636 2°56.019 0.5 342 4.4 102620 52
2012-03-15 07:06 51°13.636 2°56.019 1.9 338 4.4 102620 52
2012-03-15 07:07 51°13.636 2°56.02 -999 333 4.4 102620 51
2012-03-15 07:08 51°13.636 2°56.02 -999 327 4.4 102630 52
2012-03-15 07:09 51°13.636 2°56.021 0.2 333 4.4 102620 52
2012-03-15 07:10 51°13.635 2°56.019 0.2 328 4.4 102620 52
2012-03-15 07:11 51°13.635 2°56.019 0.1 338 4.4 102620 52
2012-03-15 07:12 51°13.636 2°56.02 1.6 335 4.4 102620 52
2012-03-15 07:13 51°13.635 2°56.02 0.6 332 4.4 102620 52
2012-03-15 07:14 51°13.635 2°56.019 0.3 329 4.4 102620 52
2012-03-15 07:15 51°13.635 2°56.02 0.1 328 4.4 102620 51
2012-03-15 07:16 51°13.635 2°56.02 2.2 330 4.5 102620 52
2012-03-15 07:17 51°13.635 2°56.02 0.3 338 4.4 102620 52
2012-03-15 07:18 51°13.635 2°56.019 0.7 335 4.5 102620 52
2012-03-15 07:19 51°13.636 2°56.02 0.1 330 4.4 102620 51
2012-03-15 07:20 51°13.636 2°56.02 0.1 332 4.4 102620 51
2012-03-15 07:21 51°13.636 2°56.02 0.1 332 4.5 102620 51
2012-03-15 07:22 51°13.636 2°56.02 0.2 332 4.5 102620 51
2012-03-15 07:23 51°13.636 2°56.019 -999 326 4.5 102620 51
2012-03-15 07:24 51°13.636 2°56.019 0.1 335 4.5 102620 52
2012-03-15 07:25 51°13.635 2°56.019 0.1 339 4.5 102620 51
2012-03-15 07:26 51°13.635 2°56.019 0.1 331 4.6 102630 51
2012-03-15 07:27 51°13.635 2°56.019 0.5 335 4.6 102630 51
2012-03-15 07:28 51°13.635 2°56.019 0.9 335 4.6 102630 51
2012-03-15 07:29 51°13.635 2°56.019 0.5 338 4.6 102620 51
2012-03-15 07:30 51°13.635 2°56.019 1.2 344 4.6 102630 52
2012-03-15 07:31 51°13.635 2°56.019 1.3 334 4.6 102630 50
2012-03-15 07:32 51°13.635 2°56.019 0.6 338 4.7 102630 51
2012-03-15 07:33 51°13.635 2°56.019 0.3 345 4.7 102630 52
2012-03-15 07:34 51°13.636 2°56.017 1.7 351 4.7 102630 51
2012-03-15 07:35 51°13.647 2°55.955 1.1 15 4.7 102630 51
2012-03-15 07:36 51°13.671 2°55.863 -999 31 4.8 102630 51
2012-03-15 07:37 51°13.718 2°55.772 0.1 30 4.9 102630 51
2012-03-15 07:38 51°13.773 2°55.688 0.4 22 4.9 102630 51
2012-03-15 07:39 51°13.865 2°55.627 0.6 21 5 102630 50
2012-03-15 07:40 51°13.948 2°55.657 1.6 20 5 102630 51
2012-03-15 07:41 51°13.972 2°55.67 1.9 261 5 102630 52
2012-03-15 07:42 51°13.994 2°55.607 0.1 268 5.1 102630 51
2012-03-15 07:43 51°14.073 2°55.503 -999 23 5.2 102630 52
2012-03-15 07:44 51°14.184 2°55.392 -999 321 5.2 102630 50
2012-03-15 07:45 51°14.303 2°55.271 -999 321 5.3 102630 51
2012-03-15 07:46 51°14.435 2°55.136 -999 327 5.3 102630 51
2012-03-15 07:47 51°14.581 2°55 0.1 330 5.3 102630 51
2012-03-15 07:48 51°14.73 2°54.829 0.1 330 5.3 102630 51
2012-03-15 07:49 51°14.896 2°54.648 1.3 329 5.4 102630 51
2012-03-15 07:50 51°15.069 2°54.445 1.2 327 5.4 102630 51
2012-03-15 07:51 51°15.248 2°54.265 1.7 327 5.5 102630 51
2012-03-15 07:52 51°15.416 2°54.065 2.2 321 5.5 102630 51
2012-03-15 07:53 51°15.575 2°53.846 3 329 5.6 102630 52
2012-03-15 07:54 51°15.756 2°53.653 2.9 326 5.7 102640 51
2012-03-15 07:55 51°15.922 2°53.454 2.8 327 5.8 102630 53
2012-03-15 07:56 51°16.091 2°53.25 2.8 321 5.8 102630 51
2012-03-15 07:57 51°16.257 2°53.04 2.7 326 5.9 102640 53
2012-03-15 07:58 51°16.443 2°52.872 3.3 331 6 102630 51
2012-03-15 07:59 51°16.617 2°52.677 2.5 323 6.1 102630 52
2012-03-15 08:00 51°16.802 2°52.512 3.1 326 6.1 102640 51
2012-03-15 08:01 51°16.988 2°52.344 3.8 328 6.2 102630 52
2012-03-15 08:02 51°17.154 2°52.142 3.5 321 6.2 102630 51
2012-03-15 08:03 51°17.292 2°51.892 3.6 21 6.2 102630 51
2012-03-15 08:04 51°17.445 2°51.659 3 323 6.2 102630 52
2012-03-15 08:05 51°17.613 2°51.452 2.9 325 6.2 102630 52
2012-03-15 08:06 51°17.796 2°51.277 2 327 6.2 102630 52
2012-03-15 08:07 51°17.976 2°51.092 2.5 324 6.2 102630 51
2012-03-15 08:08 51°18.15 2°50.893 2.2 322 6.2 102630 52
2012-03-15 08:09 51°18.31 2°50.668 2.8 325 6.2 102630 50
2012-03-15 08:10 51°18.489 2°50.478 2.8 330 6.2 102620 52
2012-03-15 08:11 51°18.665 2°50.285 2.2 327 6.2 102620 51
2012-03-15 08:12 51°18.835 2°50.073 2.8 324 6.2 102620 52
2012-03-15 08:13 51°19.007 2°49.868 3.6 325 6.2 102630 51
2012-03-15 08:14 51°19.194 2°49.697 2 325 6.2 102620 52
2012-03-15 08:15 51°19.374 2°49.512 2.9 322 6.2 102620 51
2012-03-15 08:16 51°19.551 2°49.315 3.1 327 6.2 102620 52
2012-03-15 08:17 51°19.739 2°49.141 3.3 328 6.3 102630 51
2012-03-15 08:18 51°19.922 2°48.954 2.8 326 6.3 102620 52
2012-03-15 08:19 51°20.107 2°48.769 2.3 329 6.2 102620 51
2012-03-15 08:20 51°20.292 2°48.588 2.8 327 6.3 102620 51
2012-03-15 08:21 51°20.483 2°48.435 2.8 332 6.3 102620 51
2012-03-15 08:22 51°20.683 2°48.348 2.5 337 6.3 102620 51
2012-03-15 08:23 51°20.877 2°48.276 2.7 337 6.2 102620 52
2012-03-15 08:24 51°21.064 2°48.175 2.1 334 6.1 102620 52
2012-03-15 08:25 51°21.26 2°48.096 2.3 338 6.1 102620 51
2012-03-15 08:26 51°21.461 2°48.028 3.5 337 6.1 102620 51
2012-03-15 08:27 51°21.665 2°47.92 3 334 6 102620 52
2012-03-15 08:28 51°21.876 2°47.835 3.8 338 6 102620 52
2012-03-15 08:29 51°22.058 2°47.661 3.4 329 5.9 102620 52
2012-03-15 08:30 51°22.201 2°47.406 3.9 322 5.9 102620 52
2012-03-15 08:31 51°22.34 2°47.155 4.4 321 6 102620 53
2012-03-15 08:32 51°22.476 2°46.891 3.4 317 6 102620 52
2012-03-15 08:33 51°22.622 2°46.64 3.3 321 6 102620 52
2012-03-15 08:34 51°22.773 2°46.396 3.8 318 6 102620 52
2012-03-15 08:35 51°22.904 2°46.12 4.1 320 6.1 102620 52
2012-03-15 08:36 51°23.058 2°45.875 3.2 321 6.1 102620 52
2012-03-15 08:37 51°23.203 2°45.623 3.1 316 6.1 102610 53
2012-03-15 08:38 51°23.35 2°45.371 3.2 321 6.1 102610 52
2012-03-15 08:39 51°23.508 2°45.139 3 319 6.2 102610 52
2012-03-15 08:40 51°23.654 2°44.89 3.2 19 6.1 102610 52
2012-03-15 08:41 51°23.807 2°44.65 2.5 316 6.2 102610 52
2012-03-15 08:42 51°23.958 2°44.409 3.1 317 6.2 102610 52
2012-03-15 08:43 51°24.12 2°44.187 1.5 324 6.2 102600 52
2012-03-15 08:44 51°24.257 2°44.037 -999 248 6.3 102600 52
2012-03-15 08:45 51°24.33 2°43.931 0.1 251 6.4 102600 53
2012-03-15 08:46 51°24.402 2°43.857 -999 252 6.5 102600 52
2012-03-15 08:47 51°24.48 2°43.809 0.1 21 6.7 102600 52
2012-03-15 08:48 51°24.559 2°43.763 0.7 22 6.7 102600 52
2012-03-15 08:49 51°24.627 2°43.731 0.9 23 6.7 102600 51
2012-03-15 08:50 51°24.669 2°43.7 2.2 22 6.6 102600 51
2012-03-15 08:51 51°24.67 2°43.702 1.4 20 6.9 102600 52
2012-03-15 08:52 51°24.67 2°43.707 1.1 22 7.2 102600 51
2012-03-15 08:53 51°24.672 2°43.711 3 27 7.4 102600 50
2012-03-15 08:54 51°24.675 2°43.715 2.6 19 7.3 102600 50
2012-03-15 08:55 51°24.674 2°43.717 3.7 21 7.1 102600 50
2012-03-15 08:56 51°24.671 2°43.721 3.6 22 6.7 102600 50
2012-03-15 08:57 51°24.652 2°43.727 3.7 25 6.5 102600 49
2012-03-15 08:58 51°24.636 2°43.732 3.4 28 6.3 102610 51
2012-03-15 08:59 51°24.636 2°43.733 1.9 22 6.3 102600 51
2012-03-15 09:00 51°24.638 2°43.733 1.5 27 6.6 102600 53
2012-03-15 09:01 51°24.64 2°43.733 1.8 21 6.9 102600 52
2012-03-15 09:02 51°24.641 2°43.736 0.4 30 7.3 102600 52
2012-03-15 09:03 51°24.641 2°43.738 1.5 20 7.5 102600 51
2012-03-15 09:04 51°24.643 2°43.74 2.2 33 7.6 102600 49
2012-03-15 09:05 51°24.647 2°43.74 1.3 20 7.6 102600 49
2012-03-15 09:06 51°24.646 2°43.744 1.7 27 7.6 102600 50
2012-03-15 09:07 51°24.641 2°43.751 1.1 26 7.7 102600 49
2012-03-15 09:08 51°24.639 2°43.755 1.7 21 7.8 102600 49
2012-03-15 09:09 51°24.639 2°43.756 2.4 27 7.8 102600 49
2012-03-15 09:10 51°24.641 2°43.756 0.3 21 7.9 102600 49
2012-03-15 09:11 51°24.644 2°43.752 2 24 8 102600 49
2012-03-15 09:12 51°24.648 2°43.75 3 19 7.7 102600 47
2012-03-15 09:13 51°24.647 2°43.747 3.8 33 7.3 102600 47
2012-03-15 09:14 51°24.64 2°43.747 3.2 22 6.9 102600 50
2012-03-15 09:15 51°24.631 2°43.747 2.6 28 6.6 102600 50
2012-03-15 09:16 51°24.631 2°43.744 3.4 22 6.4 102600 51
2012-03-15 09:17 51°24.633 2°43.738 2.3 20 6.3 102600 52
2012-03-15 09:18 51°24.636 2°43.733 2.4 28 6.6 102590 53
2012-03-15 09:19 51°24.636 2°43.729 2.1 26 7 102590 51
2012-03-15 09:20 51°24.628 2°43.736 3 25 7.3 102590 51
2012-03-15 09:21 51°24.617 2°43.749 3.2 20 7.1 102590 50
2012-03-15 09:22 51°24.609 2°43.759 2 18 6.9 102590 50
2012-03-15 09:23 51°24.606 2°43.764 1.7 28 6.9 102590 50
2012-03-15 09:24 51°24.606 2°43.765 2.8 31 6.9 102590 51
2012-03-15 09:25 51°24.608 2°43.764 2.4 19 6.9 102590 50
2012-03-15 09:26 51°24.609 2°43.762 2.6 28 6.8 102600 50
2012-03-15 09:27 51°24.61 2°43.762 1.1 22 7 102590 51
2012-03-15 09:28 51°24.607 2°43.761 2.1 23 7.2 102600 51
2012-03-15 09:29 51°24.605 2°43.759 2.1 22 7.4 102600 50
2012-03-15 09:30 51°24.605 2°43.755 2.4 28 7.4 102600 49
2012-03-15 09:31 51°24.606 2°43.749 2.7 23 7.2 102590 49
2012-03-15 09:32 51°24.609 2°43.742 3.2 29 6.9 102600 50
2012-03-15 09:33 51°24.613 2°43.733 2.9 21 6.7 102590 50
2012-03-15 09:34 51°24.618 2°43.724 2.6 22 6.5 102590 51
2012-03-15 09:35 51°24.619 2°43.715 3.1 24 6.4 102590 52
2012-03-15 09:36 51°24.614 2°43.705 3.8 22 6.3 102590 51
2012-03-15 09:37 51°24.606 2°43.695 2.9 20 6.3 102590 51
2012-03-15 09:38 51°24.597 2°43.689 3.1 21 6.3 102590 52
2012-03-15 09:39 51°24.59 2°43.681 2.7 19 6.2 102590 52
2012-03-15 09:40 51°24.586 2°43.672 3 33 6.2 102590 53
2012-03-15 09:41 51°24.582 2°43.663 3 26 6.2 102590 53
2012-03-15 09:42 51°24.58 2°43.653 2.4 28 6.2 102590 52
2012-03-15 09:43 51°24.579 2°43.643 2.7 21 6.2 102590 52
2012-03-15 09:44 51°24.581 2°43.634 2.7 19 6.3 102590 53
2012-03-15 09:45 51°24.585 2°43.622 2.6 23 6.3 102580 52
2012-03-15 09:46 51°24.589 2°43.61 3.3 28 6.3 102590 52
2012-03-15 09:47 51°24.594 2°43.598 2.7 31 6.4 102590 53
2012-03-15 09:48 51°24.6 2°43.586 2.8 42 6.4 102590 53
2012-03-15 09:49 51°24.607 2°43.574 2.4 39 6.4 102580 53
2012-03-15 09:50 51°24.612 2°43.562 3 38 6.4 102580 53
2012-03-15 09:51 51°24.619 2°43.55 2.8 36 6.4 102580 53
2012-03-15 09:52 51°24.624 2°43.538 2.9 35 6.4 102580 53
2012-03-15 09:53 51°24.631 2°43.529 3 31 6.4 102580 53
2012-03-15 09:54 51°24.637 2°43.519 3 29 6.4 102580 53
2012-03-15 09:55 51°24.644 2°43.51 2.8 23 6.4 102570 52
2012-03-15 09:56 51°24.651 2°43.508 3.1 14 6.4 102570 52
2012-03-15 09:57 51°24.656 2°43.51 3.3 7 6.4 102570 52
2012-03-15 09:58 51°24.66 2°43.507 3.2 6 6.4 102570 52
2012-03-15 09:59 51°24.663 2°43.502 3.1 6 6.4 102560 52
2012-03-15 10:00 51°24.667 2°43.494 3.2 7 6.4 102570 53
2012-03-15 10:01 51°24.672 2°43.485 3.5 7 6.3 102570 54
2012-03-15 10:02 51°24.676 2°43.477 3.5 9 6.4 102570 53
2012-03-15 10:03 51°24.679 2°43.477 3.5 5 6.4 102570 52
2012-03-15 10:04 51°24.682 2°43.489 3.3 359 6.4 102570 53
2012-03-15 10:05 51°24.681 2°43.518 3.9 353 6.4 102560 53
2012-03-15 10:06 51°24.674 2°43.56 3.9 352 6.3 102560 54
2012-03-15 10:07 51°24.665 2°43.607 3.7 353 6.3 102560 53
2012-03-15 10:08 51°24.658 2°43.645 3.5 354 6.3 102560 53
2012-03-15 10:09 51°24.653 2°43.677 3.8 354 6.3 102560 53
2012-03-15 10:10 51°24.654 2°43.705 3.6 7 6.3 102560 53
2012-03-15 10:11 51°24.661 2°43.722 3.3 18 6.3 102570 53
2012-03-15 10:12 51°24.668 2°43.724 3 25 6.4 102570 54
2012-03-15 10:13 51°24.675 2°43.721 2.8 24 6.5 102560 54
2012-03-15 10:14 51°24.682 2°43.717 2.5 24 6.5 102560 53
2012-03-15 10:15 51°24.687 2°43.711 2.8 22 6.6 102560 53
2012-03-15 10:16 51°24.692 2°43.704 2.6 21 6.6 102560 53
2012-03-15 10:17 51°24.695 2°43.695 2.8 18 6.7 102560 54
2012-03-15 10:18 51°24.698 2°43.683 3.2 18 6.7 102560 54
2012-03-15 10:19 51°24.7 2°43.671 2.7 18 6.7 102560 54
2012-03-15 10:20 51°24.702 2°43.655 2.7 19 6.8 102560 53
2012-03-15 10:21 51°24.704 2°43.639 2.7 19 6.8 102560 54
2012-03-15 10:22 51°24.705 2°43.631 3 9 6.8 102560 53
2012-03-15 10:23 51°24.7 2°43.668 3.1 355 6.8 102560 53
2012-03-15 10:24 51°24.69 2°43.735 3.3 359 6.8 102560 53
2012-03-15 10:25 51°24.688 2°43.79 3.2 3 6.7 102560 53
2012-03-15 10:26 51°24.683 2°43.805 3 357 6.7 102560 54
2012-03-15 10:27 51°24.681 2°43.802 2.6 353 6.8 102560 53
2012-03-15 10:28 51°24.679 2°43.793 2.8 356 6.8 102560 54
2012-03-15 10:29 51°24.678 2°43.784 3.2 356 6.8 102560 53
2012-03-15 10:30 51°24.677 2°43.774 3 355 6.8 102560 53
2012-03-15 10:31 51°24.676 2°43.763 3 356 6.9 102560 54
2012-03-15 10:32 51°24.675 2°43.753 2.8 353 6.9 102560 54
2012-03-15 10:33 51°24.675 2°43.74 2.1 352 6.9 102560 53
2012-03-15 10:34 51°24.676 2°43.729 2.8 350 6.9 102550 53
2012-03-15 10:35 51°24.675 2°43.719 2.9 349 6.9 102550 53
2012-03-15 10:36 51°24.675 2°43.707 2.4 349 6.9 102550 53
2012-03-15 10:37 51°24.675 2°43.693 2.7 349 7 102560 53
2012-03-15 10:38 51°24.673 2°43.677 2.7 351 7 102550 53
2012-03-15 10:39 51°24.671 2°43.667 2.8 354 7 102550 53
2012-03-15 10:40 51°24.668 2°43.693 2.7 7 7 102550 54
2012-03-15 10:41 51°24.676 2°43.75 2.8 9 7 102550 53
2012-03-15 10:42 51°24.686 2°43.772 2.2 38 7 102550 53
2012-03-15 10:43 51°24.683 2°43.754 2.4 42 7 102550 54
2012-03-15 10:44 51°24.677 2°43.734 3 33 7.1 102560 54
2012-03-15 10:45 51°24.671 2°43.715 2.5 28 7.1 102550 53
2012-03-15 10:46 51°24.667 2°43.695 2.8 43 7.2 102550 53
2012-03-15 10:47 51°24.663 2°43.672 2.5 43 7.3 102550 53
2012-03-15 10:48 51°24.66 2°43.65 2.6 43 7.4 102550 53
2012-03-15 10:49 51°24.658 2°43.628 2.4 44 7.4 102550 53
2012-03-15 10:50 51°24.656 2°43.605 2.7 44 7.4 102550 54
2012-03-15 10:51 51°24.661 2°43.596 2.4 27 7.4 102550 53
2012-03-15 10:52 51°24.668 2°43.629 3.1 7 7.4 102550 53
2012-03-15 10:53 51°24.677 2°43.674 2.6 16 7.4 102550 53
2012-03-15 10:54 51°24.684 2°43.711 3 6 7.3 102550 54
2012-03-15 10:55 51°24.678 2°43.742 3.2 4 7.3 102550 53
2012-03-15 10:56 51°24.673 2°43.736 2.7 4 7.4 102550 53
2012-03-15 10:57 51°24.67 2°43.724 2.7 4 7.4 102550 53
2012-03-15 10:58 51°24.667 2°43.711 2.8 5 7.4 102550 52
2012-03-15 10:59 51°24.663 2°43.696 2.6 7 7.4 102550 54
2012-03-15 11:00 51°24.66 2°43.68 2.9 9 7.5 102550 53
2012-03-15 11:01 51°24.657 2°43.665 3 8 7.5 102550 53
2012-03-15 11:02 51°24.654 2°43.651 2.7 7 7.5 102550 53
2012-03-15 11:03 51°24.652 2°43.662 2.6 19 7.5 102550 52
2012-03-15 11:04 51°24.671 2°43.698 2.5 18 7.5 102550 54
2012-03-15 11:05 51°24.682 2°43.742 3 5 7.4 102550 53
2012-03-15 11:06 51°24.675 2°43.761 2.7 -999 7.4 102550 54
2012-03-15 11:07 51°24.674 2°43.74 2.5 358 7.4 102550 53
2012-03-15 11:08 51°24.673 2°43.717 2.6 359 7.4 102560 54
2012-03-15 11:09 51°24.668 2°43.709 2.7 14 7.4 102550 53
2012-03-15 11:10 51°24.665 2°43.698 3 19 7.4 102550 53
2012-03-15 11:11 51°24.663 2°43.682 2.7 19 7.5 102550 54
2012-03-15 11:12 51°24.66 2°43.666 2.5 18 7.5 102550 53
2012-03-15 11:13 51°24.657 2°43.649 2.1 14 7.6 102550 53
2012-03-15 11:14 51°24.653 2°43.631 2.8 11 7.6 102550 53
2012-03-15 11:15 51°24.649 2°43.612 2.3 10 7.7 102550 53
2012-03-15 11:16 51°24.647 2°43.61 2.3 14 7.8 102550 54
2012-03-15 11:17 51°24.689 2°43.674 1.7 359 7.8 102550 53
2012-03-15 11:18 51°24.795 2°43.784 2.1 350 7.7 102550 53
2012-03-15 11:19 51°24.925 2°43.922 3.7 348 7.7 102540 53
2012-03-15 11:20 51°25.075 2°44.1 4.9 344 7.7 102550 52
2012-03-15 11:21 51°25.218 2°44.315 4.6 344 7.8 102540 54
2012-03-15 11:22 51°25.372 2°44.511 4.6 345 7.8 102540 53
2012-03-15 11:23 51°25.517 2°44.721 4.4 345 7.8 102540 52
2012-03-15 11:24 51°25.67 2°44.917 4.5 344 7.8 102530 52
2012-03-15 11:25 51°25.824 2°45.113 4.6 346 7.8 102540 53
2012-03-15 11:26 51°25.973 2°45.317 4.8 343 7.8 102540 52
2012-03-15 11:27 51°26.132 2°45.502 4.9 343 7.8 102530 53
2012-03-15 11:28 51°26.279 2°45.711 5.2 342 7.8 102530 53
2012-03-15 11:29 51°26.434 2°45.905 5.2 340 7.8 102540 53
2012-03-15 11:30 51°26.597 2°46.083 5.1 339 7.8 102530 52
2012-03-15 11:31 51°26.758 2°46.27 5.3 340 7.8 102540 52
2012-03-15 11:32 51°26.902 2°46.486 5.6 341 7.8 102540 53
2012-03-15 11:33 51°27.05 2°46.698 5.4 339 7.8 102530 52
2012-03-15 11:34 51°27.213 2°46.882 5 338 7.9 102530 53
2012-03-15 11:35 51°27.371 2°47.076 6 337 8 102530 52
2012-03-15 11:36 51°27.523 2°47.276 5.1 336 8 102540 51
2012-03-15 11:37 51°27.685 2°47.457 5.5 337 8 102530 52
2012-03-15 11:38 51°27.838 2°47.659 5 339 8 102530 51
2012-03-15 11:39 51°27.989 2°47.862 5.8 339 8.1 102530 51
2012-03-15 11:40 51°28.155 2°48.04 5.9 339 8.1 102530 51
2012-03-15 11:41 51°28.314 2°48.236 5.9 340 8.1 102530 52
2012-03-15 11:42 51°28.465 2°48.44 6.6 339 8.1 102530 51
2012-03-15 11:43 51°28.627 2°48.611 5.9 339 8.1 102530 51
2012-03-15 11:44 51°28.801 2°48.779 5.6 339 8.1 102530 52
2012-03-15 11:45 51°28.964 2°48.96 5.4 340 8.2 102530 51
2012-03-15 11:46 51°29.111 2°49.166 6 340 8.2 102530 51
2012-03-15 11:47 51°29.267 2°49.356 6.1 340 8.2 102530 51
2012-03-15 11:48 51°29.421 2°49.551 6.1 339 8.2 102520 51
2012-03-15 11:49 51°29.582 2°49.735 5.6 340 8.3 102520 51
2012-03-15 11:50 51°29.746 2°49.915 6.5 340 8.2 102530 51
2012-03-15 11:51 51°29.9 2°50.117 6.8 341 8.2 102520 50
2012-03-15 11:52 51°30.066 2°50.291 6.1 342 8.1 102520 51
2012-03-15 11:53 51°30.196 2°50.519 6.3 340 8 102520 51
2012-03-15 11:54 51°30.311 2°50.766 6.5 341 8 102520 51
2012-03-15 11:55 51°30.436 2°51.002 6.8 340 7.9 102520 51
2012-03-15 11:56 51°30.574 2°51.218 6.7 340 7.8 102520 51
2012-03-15 11:57 51°30.692 2°51.465 6.5 341 7.7 102520 52
2012-03-15 11:58 51°30.816 2°51.702 6.4 342 7.6 102520 52
2012-03-15 11:59 51°30.947 2°51.929 7.1 342 7.6 102520 52
2012-03-15 12:00 51°31.078 2°52.151 6 344 7.6 102510 52
2012-03-15 12:01 51°31.155 2°52.284 4 349 7.5 102520 51
2012-03-15 12:02 51°31.208 2°52.376 4.5 348 7.4 102520 51
2012-03-15 12:03 51°31.234 2°52.467 3.9 350 7.4 102530 53
2012-03-15 12:04 51°31.223 2°52.472 2.2 337 7.4 102520 52
2012-03-15 12:05 51°31.209 2°52.457 2.1 332 7.6 102520 53
2012-03-15 12:06 51°31.199 2°52.442 2.3 332 7.8 102520 53
2012-03-15 12:07 51°31.194 2°52.438 2.5 354 7.9 102520 52
2012-03-15 12:08 51°31.192 2°52.443 2.5 1 7.8 102520 52
2012-03-15 12:09 51°31.191 2°52.447 2.6 8 7.6 102520 52
2012-03-15 12:10 51°31.19 2°52.447 3 9 7.5 102520 53
2012-03-15 12:11 51°31.19 2°52.445 2.4 12 7.5 102520 53
2012-03-15 12:12 51°31.191 2°52.445 3.1 10 7.4 102520 53
2012-03-15 12:13 51°31.191 2°52.444 3.1 9 7.3 102520 53
2012-03-15 12:14 51°31.191 2°52.443 3.2 8 7.2 102510 52
2012-03-15 12:15 51°31.191 2°52.442 3.1 8 7.2 102520 53
2012-03-15 12:16 51°31.192 2°52.442 2.9 11 7.2 102510 53
2012-03-15 12:17 51°31.191 2°52.442 3.2 9 7.2 102510 52
2012-03-15 12:18 51°31.191 2°52.443 3 11 7.2 102510 53
2012-03-15 12:19 51°31.191 2°52.443 3.5 9 7.2 102510 53
2012-03-15 12:20 51°31.191 2°52.443 3.1 10 7.1 102520 53
2012-03-15 12:21 51°31.191 2°52.442 3.4 9 7.1 102510 53
2012-03-15 12:22 51°31.191 2°52.442 3.2 9 7.1 102510 54
2012-03-15 12:23 51°31.191 2°52.443 3.1 9 7.1 102510 54
2012-03-15 12:24 51°31.191 2°52.443 3.3 9 7.1 102510 53
2012-03-15 12:25 51°31.191 2°52.442 2.7 7 7.1 102510 53
2012-03-15 12:26 51°31.191 2°52.442 2.8 8 7.1 102510 53
2012-03-15 12:27 51°31.191 2°52.442 2.7 10 7.1 102510 54
2012-03-15 12:28 51°31.191 2°52.443 3 8 7.1 102510 54
2012-03-15 12:29 51°31.191 2°52.442 2.8 8 7.1 102510 53
2012-03-15 12:30 51°31.191 2°52.442 2.6 7 7.1 102500 54
2012-03-15 12:31 51°31.191 2°52.441 2.9 8 7.1 102500 54
2012-03-15 12:32 51°31.191 2°52.442 2.7 7 7.1 102500 53
2012-03-15 12:33 51°31.191 2°52.442 3.2 9 7.1 102500 54
2012-03-15 12:34 51°31.191 2°52.442 2.8 7 7.2 102500 53
2012-03-15 12:35 51°31.192 2°52.441 2.8 9 7.1 102500 53
2012-03-15 12:36 51°31.192 2°52.442 3.2 9 7.1 102500 54
2012-03-15 12:37 51°31.192 2°52.442 2.9 10 7.1 102490 54
2012-03-15 12:38 51°31.191 2°52.442 3.1 10 7.1 102490 53
2012-03-15 12:39 51°31.191 2°52.442 2.5 13 7.2 102500 53
2012-03-15 12:40 51°31.191 2°52.443 3 10 7.2 102500 53
2012-03-15 12:41 51°31.191 2°52.442 2.4 14 7.2 102500 53
2012-03-15 12:42 51°31.191 2°52.442 2.3 14 7.3 102500 54
2012-03-15 12:43 51°31.191 2°52.443 2 10 7.2 102500 54
2012-03-15 12:44 51°31.191 2°52.443 2.6 10 7.3 102500 54
2012-03-15 12:45 51°31.191 2°52.443 2.6 10 7.3 102500 54
2012-03-15 12:46 51°31.191 2°52.444 3 11 7.2 102490 53
2012-03-15 12:47 51°31.199 2°52.453 2.9 10 7.3 102500 54
2012-03-15 12:48 51°31.209 2°52.466 2.7 8 7.3 102490 53
2012-03-15 12:49 51°31.216 2°52.477 3.1 8 7.3 102490 53
2012-03-15 12:50 51°31.219 2°52.481 2.6 11 7.3 102490 53
2012-03-15 12:51 51°31.217 2°52.48 2.7 11 7.3 102490 53
2012-03-15 12:52 51°31.215 2°52.496 3.7 352 7.3 102480 53
2012-03-15 12:53 51°31.188 2°52.542 3.8 332 7.4 102480 54
2012-03-15 12:54 51°31.121 2°52.566 4.5 321 7.6 102480 54
2012-03-15 12:55 51°30.992 2°52.605 7 323 7.8 102480 54
2012-03-15 12:56 51°30.815 2°52.587 8 321 8 102470 54
2012-03-15 12:57 51°30.609 2°52.549 8.5 323 8.2 102470 53
2012-03-15 12:58 51°30.391 2°52.504 7.5 322 8.3 102460 52
2012-03-15 12:59 51°30.174 2°52.428 8.1 323 8.3 102460 52
2012-03-15 13:00 51°29.957 2°52.379 7.8 322 8.4 102460 52
2012-03-15 13:01 51°29.745 2°52.325 7.3 319 8.4 102460 51
2012-03-15 13:02 51°29.532 2°52.255 7.4 320 8.5 102460 52
2012-03-15 13:03 51°29.316 2°52.219 6.6 320 8.6 102450 52
2012-03-15 13:04 51°29.1 2°52.177 7.5 320 8.7 102460 51
2012-03-15 13:05 51°28.885 2°52.101 7.8 323 8.7 102450 52
2012-03-15 13:06 51°28.667 2°52.048 6.8 323 8.9 102450 51
2012-03-15 13:07 51°28.45 2°51.962 7.6 321 9 102450 51
2012-03-15 13:08 51°28.233 2°51.89 6.8 324 9 102450 50
2012-03-15 13:09 51°28.013 2°51.826 7 320 9.1 102450 50
2012-03-15 13:10 51°27.795 2°51.742 6.3 321 9.1 102450 50
2012-03-15 13:11 51°27.576 2°51.714 7.1 321 9.1 102450 51
2012-03-15 13:12 51°27.359 2°51.723 7 321 9 102440 51
2012-03-15 13:13 51°27.143 2°51.709 6.2 322 8.9 102440 51
2012-03-15 13:14 51°26.979 2°51.696 4.4 317 9 102440 51
2012-03-15 13:15 51°26.879 2°51.67 2.6 240 9.1 102440 51
2012-03-15 13:16 51°26.802 2°51.608 2.7 27 9.1 102440 51
2012-03-15 13:17 51°26.715 2°51.576 3.5 33 9.2 102450 50
2012-03-15 13:18 51°26.669 2°51.629 3.7 338 9.2 102440 50
2012-03-15 13:19 51°26.7 2°51.68 3.4 348 9.2 102440 49
2012-03-15 13:20 51°26.718 2°51.684 2.5 351 8.9 102440 51
2012-03-15 13:21 51°26.711 2°51.657 2.9 344 8.7 102440 51
2012-03-15 13:22 51°26.702 2°51.63 2.4 342 8.6 102440 52
2012-03-15 13:23 51°26.702 2°51.626 3.5 346 8.6 102430 52
2012-03-15 13:24 51°26.703 2°51.632 2.9 346 8.6 102430 51
2012-03-15 13:25 51°26.703 2°51.63 2.4 347 8.5 102430 52
2012-03-15 13:26 51°26.702 2°51.625 2.6 347 8.5 102430 52
2012-03-15 13:27 51°26.702 2°51.627 2.7 345 8.6 102440 52
2012-03-15 13:28 51°26.703 2°51.63 2.8 346 8.6 102430 52
2012-03-15 13:29 51°26.703 2°51.628 2.4 347 8.6 102430 52
2012-03-15 13:30 51°26.702 2°51.626 2.9 347 8.7 102430 52
2012-03-15 13:31 51°26.702 2°51.627 2.9 346 8.7 102430 51
2012-03-15 13:32 51°26.703 2°51.628 2.6 347 8.7 102430 52
2012-03-15 13:33 51°26.703 2°51.626 2.9 348 8.6 102430 52
2012-03-15 13:34 51°26.703 2°51.627 3 347 8.6 102430 52
2012-03-15 13:35 51°26.702 2°51.627 2.8 347 8.6 102430 53
2012-03-15 13:36 51°26.702 2°51.629 2.4 346 8.6 102430 53
2012-03-15 13:37 51°26.701 2°51.629 1.8 346 8.7 102430 52
2012-03-15 13:38 51°26.701 2°51.628 2.7 349 8.7 102420 52
2012-03-15 13:39 51°26.702 2°51.628 2.1 347 8.7 102420 51
2012-03-15 13:40 51°26.702 2°51.629 2.3 347 8.7 102430 51
2012-03-15 13:41 51°26.702 2°51.629 2.8 347 8.7 102420 53
2012-03-15 13:42 51°26.702 2°51.629 3.3 347 8.6 102420 52
2012-03-15 13:43 51°26.702 2°51.629 2.9 348 8.6 102420 52
2012-03-15 13:44 51°26.701 2°51.63 3.2 346 8.6 102420 52
2012-03-15 13:45 51°26.701 2°51.629 3.5 346 8.7 102410 52
2012-03-15 13:46 51°26.701 2°51.628 2.7 349 8.7 102410 52
2012-03-15 13:47 51°26.702 2°51.628 2.9 348 8.7 102400 52
2012-03-15 13:48 51°26.702 2°51.627 3 345 8.6 102400 52
2012-03-15 13:49 51°26.702 2°51.628 3 345 8.7 102400 52
2012-03-15 13:50 51°26.701 2°51.629 3.1 344 8.6 102400 52
2012-03-15 13:51 51°26.701 2°51.628 3.5 347 8.7 102400 52
2012-03-15 13:52 51°26.7 2°51.628 3.5 347 8.6 102400 53
2012-03-15 13:53 51°26.701 2°51.627 3.7 346 8.6 102400 53
2012-03-15 13:54 51°26.701 2°51.627 3.5 346 8.6 102390 53
2012-03-15 13:55 51°26.701 2°51.628 3.3 344 8.6 102390 53
2012-03-15 13:56 51°26.702 2°51.628 3.7 344 8.6 102390 52
2012-03-15 13:57 51°26.702 2°51.629 3.2 344 8.6 102390 52
2012-03-15 13:58 51°26.702 2°51.628 3.4 343 8.6 102390 53
2012-03-15 13:59 51°26.701 2°51.628 3.2 344 8.6 102390 53
2012-03-15 14:00 51°26.701 2°51.628 3.4 345 8.6 102390 53
2012-03-15 14:01 51°26.701 2°51.628 2.9 345 8.7 102390 53
2012-03-15 14:02 51°26.702 2°51.627 3.5 345 8.7 102390 53
2012-03-15 14:03 51°26.702 2°51.628 3.7 345 8.7 102380 53
2012-03-15 14:04 51°26.701 2°51.628 3.4 345 8.7 102380 52
2012-03-15 14:05 51°26.702 2°51.628 3.7 345 8.7 102390 52
2012-03-15 14:06 51°26.702 2°51.628 3 345 8.7 102380 52
2012-03-15 14:07 51°26.702 2°51.628 3.4 345 8.8 102380 52
2012-03-15 14:08 51°26.702 2°51.627 3.6 347 8.9 102380 52
2012-03-15 14:09 51°26.701 2°51.628 3.4 346 8.9 102380 51
2012-03-15 14:10 51°26.701 2°51.628 3.2 347 8.9 102370 52
2012-03-15 14:11 51°26.702 2°51.628 3.7 346 8.9 102370 51
2012-03-15 14:12 51°26.702 2°51.627 3.6 348 8.8 102370 51
2012-03-15 14:13 51°26.702 2°51.627 3.4 348 8.8 102370 52
2012-03-15 14:14 51°26.703 2°51.63 3.7 348 8.7 102360 51
2012-03-15 14:15 51°26.707 2°51.639 3.8 347 8.7 102360 52
2012-03-15 14:16 51°26.71 2°51.655 3.5 345 8.7 102360 52
2012-03-15 14:17 51°26.712 2°51.668 3.5 346 8.8 102370 51
2012-03-15 14:18 51°26.712 2°51.666 3.2 349 8.8 102370 52
2012-03-15 14:19 51°26.712 2°51.665 3.2 340 8.8 102360 51
2012-03-15 14:20 51°26.694 2°51.69 3.3 318 8.9 102360 50
2012-03-15 14:21 51°26.624 2°51.723 4.6 39 9 102360 52
2012-03-15 14:22 51°26.488 2°51.727 6.2 316 9 102360 52
2012-03-15 14:23 51°26.311 2°51.742 6 317 9.1 102350 51
2012-03-15 14:24 51°26.109 2°51.717 6.7 318 9.2 102350 51
2012-03-15 14:25 51°25.902 2°51.688 6.5 319 9.2 102350 50
2012-03-15 14:26 51°25.697 2°51.706 7.1 317 9.3 102350 50
2012-03-15 14:27 51°25.488 2°51.702 7.9 316 9.3 102350 50
2012-03-15 14:28 51°25.277 2°51.682 6.7 318 9.3 102340 49
2012-03-15 14:29 51°25.068 2°51.69 6 320 9.3 102340 50
2012-03-15 14:30 51°24.858 2°51.68 6.6 321 9.2 102340 49
2012-03-15 14:31 51°24.647 2°51.652 6.9 321 9.2 102340 50
2012-03-15 14:32 51°24.439 2°51.657 6.4 321 9.4 102330 50
2012-03-15 14:33 51°24.23 2°51.669 5.9 318 9.6 102330 49
2012-03-15 14:34 51°24.022 2°51.657 5.9 317 9.7 102330 49
2012-03-15 14:35 51°23.814 2°51.65 6.8 319 9.6 102330 48
2012-03-15 14:36 51°23.607 2°51.666 6.5 318 9.4 102330 48
2012-03-15 14:37 51°23.4 2°51.658 6.3 317 9.3 102330 50
2012-03-15 14:38 51°23.191 2°51.645 6.3 318 9.4 102320 50
2012-03-15 14:39 51°22.984 2°51.648 6.7 319 9.4 102320 49
2012-03-15 14:40 51°22.79 2°51.669 5.7 317 9.5 102320 50
2012-03-15 14:41 51°22.618 2°51.686 5.4 315 9.5 102320 49
2012-03-15 14:42 51°22.453 2°51.685 5.6 35 9.5 102330 50
2012-03-15 14:43 51°22.285 2°51.674 5.6 316 9.4 102320 49
2012-03-15 14:44 51°22.111 2°51.669 5.4 317 9.4 102330 48
2012-03-15 14:45 51°21.936 2°51.692 4.8 316 9.5 102320 49
2012-03-15 14:46 51°21.747 2°51.712 5.8 317 9.4 102320 50
2012-03-15 14:47 51°21.548 2°51.697 5.2 20 9.4 102320 51
2012-03-15 14:48 51°21.348 2°51.675 4.8 317 9.6 102320 50
2012-03-15 14:49 51°21.149 2°51.647 5.5 315 9.7 102310 49
2012-03-15 14:50 51°20.944 2°51.608 5.7 23 9.8 102310 49
2012-03-15 14:51 51°20.744 2°51.533 5.4 26 9.8 102310 48
2012-03-15 14:52 51°20.545 2°51.445 5.6 26 9.8 102310 49
2012-03-15 14:53 51°20.345 2°51.379 5.8 315 9.8 102310 48
2012-03-15 14:54 51°20.144 2°51.315 5.6 315 9.9 102310 49
2012-03-15 14:55 51°19.944 2°51.232 5.1 29 9.9 102310 49
2012-03-15 14:56 51°19.744 2°51.182 6.8 315 10 102300 48
2012-03-15 14:57 51°19.541 2°51.187 5.6 316 10 102300 49
2012-03-15 14:58 51°19.34 2°51.171 5.3 25 9.9 102300 49
2012-03-15 14:59 51°19.144 2°51.235 6.8 26 9.9 102300 49
2012-03-15 15:00 51°18.96 2°51.335 6.6 315 9.8 102300 49
2012-03-15 15:01 51°18.767 2°51.43 5.8 315 9.8 102290 49
2012-03-15 15:02 51°18.57 2°51.494 6.1 22 9.9 102290 49
2012-03-15 15:03 51°18.375 2°51.568 6.2 318 9.8 102290 50
2012-03-15 15:04 51°18.184 2°51.661 7.4 319 9.9 102290 49
2012-03-15 15:05 51°17.993 2°51.752 6.3 320 9.9 102290 49
2012-03-15 15:06 51°17.805 2°51.854 7.4 320 10 102290 49
2012-03-15 15:07 51°17.629 2°51.987 6.1 324 10.1 102280 47
2012-03-15 15:08 51°17.445 2°52.113 6.2 319 10.4 102280 48
2012-03-15 15:09 51°17.263 2°52.236 6.3 322 10.7 102280 46
2012-03-15 15:10 51°17.093 2°52.397 6 327 11.2 102280 45
2012-03-15 15:11 51°16.92 2°52.552 6.2 325 11.6 102280 44
2012-03-15 15:12 51°16.741 2°52.691 5.8 326 12.1 102280 44
2012-03-15 15:13 51°16.561 2°52.827 5.5 326 12.5 102280 42
2012-03-15 15:14 51°16.393 2°52.992 6 324 12.7 102280 42
2012-03-15 15:15 51°16.217 2°53.132 6.1 325 12.9 102280 41
2012-03-15 15:16 51°16.041 2°53.272 5.6 328 12.9 102280 41
2012-03-15 15:17 51°15.873 2°53.438 5.7 332 13 102280 41
2012-03-15 15:18 51°15.706 2°53.589 6 338 13.2 102280 42
2012-03-15 15:19 51°15.553 2°53.775 8.3 344 13.5 102270 42
2012-03-15 15:20 51°15.406 2°53.969 8.7 345 14.2 102250 41
2012-03-15 15:21 51°15.258 2°54.158 8.1 345 15.5 102250 40
2012-03-15 15:22 51°15.111 2°54.353 9 344 15.8 102260 39
2012-03-15 15:23 51°14.961 2°54.544 7.7 344 15.9 102260 39
2012-03-15 15:24 51°14.813 2°54.742 9.7 345 16.1 102250 39
2012-03-15 15:25 51°14.663 2°54.92 10.3 342 16.4 102260 39
2012-03-15 15:26 51°14.505 2°55.089 9.2 349 16.6 102250 39
2012-03-15 15:27 51°14.338 2°55.241 6.2 345 17 102260 39
2012-03-15 15:28 51°14.211 2°55.347 7.8 338 17.4 102260 39
2012-03-15 15:29 51°14.1 2°55.434 7.7 344 17.6 102260 39
2012-03-15 15:30 51°13.985 2°55.517 5.5 335 17.7 102260 39
2012-03-15 15:31 51°13.882 2°55.59 5.9 340 17.8 102260 39
2012-03-15 15:32 51°13.795 2°55.658 7.1 345 17.9 102250 39
2012-03-15 15:33 51°13.738 2°55.734 5.1 360 17.9 102260 39
2012-03-15 15:34 51°13.698 2°55.821 4.2 348 17.9 102260 39
2012-03-15 15:35 51°13.662 2°55.912 4 7 18 102260 39
2012-03-15 15:36 51°13.64 2°55.993 4.5 2 18 102260 39
2012-03-15 15:37 51°13.636 2°56.018 3.5 12 18 102260 39